createdAt,value
2022-12-31T00:01:02.201Z,4.10
2022-12-31T00:02:49.520Z,4.10
2022-12-31T00:04:36.594Z,4.10
2022-12-31T00:06:25.759Z,4.10
2022-12-31T00:08:13.397Z,4.10
2022-12-31T00:10:00.562Z,4.10
2022-12-31T00:11:48.004Z,4.20
2022-12-31T00:13:35.121Z,4.20
2022-12-31T00:15:22.119Z,4.30
2022-12-31T00:17:10.279Z,4.30
2022-12-31T00:18:59.386Z,4.40
2022-12-31T00:20:46.370Z,4.50
2022-12-31T00:22:33.687Z,4.60
2022-12-31T00:24:20.706Z,4.60
2022-12-31T00:26:09.873Z,4.70
2022-12-31T00:27:57.201Z,4.70
2022-12-31T00:29:44.230Z,4.80
2022-12-31T00:31:36.672Z,5.00
2022-12-31T00:33:24.048Z,5.00
2022-12-31T00:35:11.068Z,5.10
2022-12-31T00:36:58.045Z,5.10
2022-12-31T00:38:46.504Z,5.20
2022-12-31T00:40:33.537Z,5.30
2022-12-31T00:42:21.318Z,5.30
2022-12-31T00:44:09.332Z,5.30
2022-12-31T00:45:56.606Z,5.40
2022-12-31T00:47:43.607Z,5.40
2022-12-31T00:49:30.970Z,5.40
2022-12-31T00:51:19.115Z,5.40
2022-12-31T00:53:06.138Z,5.50
2022-12-31T00:54:53.378Z,5.50
2022-12-31T00:56:40.423Z,5.50
2022-12-31T00:58:27.722Z,5.60
2022-12-31T01:00:15.689Z,5.60
2022-12-31T01:02:02.811Z,5.60
2022-12-31T01:03:51.688Z,5.60
2022-12-31T01:05:39.317Z,5.60
2022-12-31T01:07:26.510Z,5.60
2022-12-31T01:09:14.416Z,5.60
2022-12-31T01:11:22.499Z,5.60
2022-12-31T01:13:10.077Z,5.60
2022-12-31T01:14:57.179Z,5.60
2022-12-31T01:16:44.435Z,5.60
2022-12-31T01:18:31.442Z,5.60
2022-12-31T01:20:18.423Z,5.60
2022-12-31T01:22:05.707Z,5.60
2022-12-31T01:23:52.771Z,5.60
2022-12-31T01:25:41.848Z,5.60
2022-12-31T01:27:29.416Z,5.70
2022-12-31T01:29:17.057Z,5.70
2022-12-31T01:31:07.823Z,5.70
2022-12-31T01:32:55.734Z,5.70
2022-12-31T01:34:42.854Z,5.60
2022-12-31T01:36:30.841Z,5.70
2022-12-31T01:38:18.141Z,5.70
2022-12-31T01:40:06.111Z,5.70
2022-12-31T01:41:53.418Z,5.70
2022-12-31T01:44:01.050Z,5.70
2022-12-31T01:45:49.727Z,5.80
2022-12-31T01:47:42.128Z,5.80
2022-12-31T01:49:36.778Z,5.80
2022-12-31T01:51:24.951Z,5.80
2022-12-31T01:53:12.129Z,5.80
2022-12-31T01:55:14.063Z,5.80
2022-12-31T01:57:01.542Z,5.80
2022-12-31T01:58:49.691Z,5.90
2022-12-31T02:00:37.013Z,5.90
2022-12-31T02:02:24.496Z,5.90
2022-12-31T02:04:12.698Z,5.90
2022-12-31T02:06:05.585Z,5.90
2022-12-31T02:07:53.684Z,5.90
2022-12-31T02:09:41.903Z,5.90
2022-12-31T02:11:36.454Z,5.90
2022-12-31T02:13:23.578Z,5.90
2022-12-31T02:15:10.783Z,5.90
2022-12-31T02:17:04.623Z,5.90
2022-12-31T02:18:56.272Z,5.90
2022-12-31T02:20:52.693Z,5.90
2022-12-31T02:22:51.994Z,5.90
2022-12-31T02:24:45.964Z,5.90
2022-12-31T02:26:42.144Z,5.90
2022-12-31T02:28:48.049Z,5.90
2022-12-31T02:30:36.360Z,6.00
2022-12-31T02:32:28.299Z,6.00
2022-12-31T02:34:18.861Z,6.00
2022-12-31T02:36:08.552Z,6.00
2022-12-31T02:37:58.992Z,6.00
2022-12-31T02:39:46.697Z,6.00
2022-12-31T02:41:51.767Z,6.00
2022-12-31T02:43:46.048Z,6.00
2022-12-31T02:45:45.105Z,6.00
2022-12-31T02:47:34.884Z,6.00
2022-12-31T02:49:45.320Z,6.00
2022-12-31T02:51:41.960Z,6.10
2022-12-31T02:53:43.976Z,6.10
2022-12-31T02:55:44.899Z,6.00
2022-12-31T02:57:40.473Z,6.10
2022-12-31T03:00:00.528Z,6.10
2022-12-31T03:02:09.228Z,6.10
2022-12-31T03:04:16.697Z,6.10
2022-12-31T03:06:04.531Z,6.10
2022-12-31T03:07:51.605Z,6.20
2022-12-31T03:09:39.228Z,6.20
2022-12-31T03:11:44.730Z,6.20
2022-12-31T03:13:31.686Z,6.20
2022-12-31T03:15:21.193Z,6.30
2022-12-31T03:17:08.572Z,6.20
2022-12-31T03:19:13.999Z,6.30
2022-12-31T03:21:30.338Z,6.30
2022-12-31T03:23:23.046Z,6.30
2022-12-31T03:25:31.417Z,6.30
2022-12-31T03:27:18.758Z,6.40
2022-12-31T03:29:05.751Z,6.40
2022-12-31T03:30:58.552Z,6.40
2022-12-31T03:32:47.007Z,6.50
2022-12-31T03:34:34.084Z,6.50
2022-12-31T03:36:21.045Z,6.60
2022-12-31T03:38:08.806Z,6.60
2022-12-31T03:39:55.848Z,6.60
2022-12-31T03:41:42.862Z,6.60
2022-12-31T03:43:30.130Z,6.60
2022-12-31T03:45:17.196Z,6.60
2022-12-31T03:47:04.237Z,6.60
2022-12-31T03:48:51.557Z,6.70
2022-12-31T03:50:38.562Z,6.70
2022-12-31T03:52:25.626Z,6.70
2022-12-31T03:54:12.935Z,6.70
2022-12-31T03:55:59.957Z,6.70
2022-12-31T03:57:47.132Z,6.80
2022-12-31T03:59:34.582Z,6.80
2022-12-31T04:01:24.321Z,6.80
2022-12-31T04:03:11.467Z,6.80
2022-12-31T04:04:58.809Z,6.80
2022-12-31T04:06:45.811Z,6.90
2022-12-31T04:08:32.765Z,6.90
2022-12-31T04:10:20.628Z,7.00
2022-12-31T04:12:07.675Z,7.00
2022-12-31T04:13:55.413Z,7.00
2022-12-31T04:15:42.945Z,7.00
2022-12-31T04:17:30.034Z,7.00
2022-12-31T04:19:17.150Z,7.00
2022-12-31T04:21:05.450Z,7.00
2022-12-31T04:22:52.433Z,7.00
2022-12-31T04:24:39.569Z,7.10
2022-12-31T04:26:26.895Z,7.00
2022-12-31T04:28:13.942Z,7.10
2022-12-31T04:30:00.896Z,7.00
2022-12-31T04:31:48.273Z,7.10
2022-12-31T04:33:36.450Z,7.10
2022-12-31T04:35:25.445Z,7.10
2022-12-31T04:37:12.689Z,7.20
2022-12-31T04:38:59.792Z,7.10
2022-12-31T04:41:05.312Z,7.20
2022-12-31T04:42:52.645Z,7.20
2022-12-31T04:44:39.572Z,7.20
2022-12-31T04:46:28.138Z,7.20
2022-12-31T04:48:15.393Z,7.20
2022-12-31T04:50:02.888Z,7.10
2022-12-31T04:51:49.901Z,7.20
2022-12-31T04:53:37.343Z,7.20
2022-12-31T04:55:24.382Z,7.20
2022-12-31T04:57:11.371Z,7.20
2022-12-31T04:59:00.372Z,7.20
2022-12-31T05:00:49.837Z,7.20
2022-12-31T05:02:37.172Z,7.20
2022-12-31T05:04:24.733Z,7.20
2022-12-31T05:06:16.010Z,7.20
2022-12-31T05:08:05.093Z,7.20
2022-12-31T05:09:52.346Z,7.30
2022-12-31T05:11:39.402Z,7.30
2022-12-31T05:13:32.720Z,7.30
2022-12-31T05:15:20.668Z,7.30
2022-12-31T05:17:09.986Z,7.30
2022-12-31T05:18:57.043Z,7.30
2022-12-31T05:20:44.838Z,7.30
2022-12-31T05:22:32.187Z,7.30
2022-12-31T05:24:19.145Z,7.40
2022-12-31T05:26:06.626Z,7.30
2022-12-31T05:27:53.708Z,7.40
2022-12-31T05:29:40.785Z,7.40
2022-12-31T05:31:28.069Z,7.40
2022-12-31T05:33:15.123Z,7.40
2022-12-31T05:35:02.133Z,7.40
2022-12-31T05:36:49.531Z,7.40
2022-12-31T05:38:37.436Z,7.40
2022-12-31T05:40:24.526Z,7.40
2022-12-31T05:42:11.784Z,7.40
2022-12-31T05:43:58.791Z,7.50
2022-12-31T05:45:45.751Z,7.40
2022-12-31T05:47:33.093Z,7.50
2022-12-31T05:49:20.052Z,7.50
2022-12-31T05:51:07.117Z,7.50
2022-12-31T05:52:54.455Z,7.40
2022-12-31T05:54:41.497Z,7.40
2022-12-31T05:56:28.489Z,7.40
2022-12-31T05:58:16.357Z,7.40
2022-12-31T06:00:04.473Z,7.50
2022-12-31T06:02:00.864Z,7.50
2022-12-31T06:03:48.293Z,7.50
2022-12-31T06:05:35.360Z,7.50
2022-12-31T06:07:22.935Z,7.50
2022-12-31T06:09:10.558Z,7.50
2022-12-31T06:10:57.568Z,7.50
2022-12-31T06:12:44.697Z,7.40
2022-12-31T06:14:32.108Z,7.40
2022-12-31T06:16:19.233Z,7.40
2022-12-31T06:18:07.241Z,7.40
2022-12-31T06:19:54.896Z,7.40
2022-12-31T06:21:41.889Z,7.40
2022-12-31T06:23:28.918Z,7.40
2022-12-31T06:25:16.301Z,7.40
2022-12-31T06:27:03.377Z,7.40
2022-12-31T06:28:50.365Z,7.40
2022-12-31T06:30:37.853Z,7.40
2022-12-31T06:32:25.436Z,7.40
2022-12-31T06:34:12.672Z,7.40
2022-12-31T06:36:01.017Z,7.40
2022-12-31T06:37:48.184Z,7.40
2022-12-31T06:39:35.217Z,7.40
2022-12-31T06:41:22.694Z,7.40
2022-12-31T06:43:10.247Z,7.40
2022-12-31T06:44:58.163Z,7.40
2022-12-31T06:46:45.849Z,7.30
2022-12-31T06:48:33.012Z,7.30
2022-12-31T06:50:20.030Z,7.30
2022-12-31T06:52:07.409Z,7.30
2022-12-31T06:53:54.550Z,7.30
2022-12-31T06:55:42.249Z,7.30
2022-12-31T06:57:29.674Z,7.30
2022-12-31T06:59:25.147Z,7.30
2022-12-31T07:01:14.913Z,7.40
2022-12-31T07:03:40.971Z,7.40
2022-12-31T07:05:35.422Z,7.30
2022-12-31T07:07:25.441Z,7.40
2022-12-31T07:09:12.764Z,7.40
2022-12-31T07:11:00.195Z,7.40
2022-12-31T07:12:47.689Z,7.40
2022-12-31T07:14:43.170Z,7.40
2022-12-31T07:16:36.171Z,7.50
2022-12-31T07:18:32.273Z,7.50
2022-12-31T07:20:20.447Z,7.50
2022-12-31T07:22:10.061Z,7.50
2022-12-31T07:23:57.633Z,7.50
2022-12-31T07:25:49.210Z,7.60
2022-12-31T07:27:50.529Z,7.60
2022-12-31T07:29:43.939Z,7.60
2022-12-31T07:31:42.515Z,7.60
2022-12-31T07:33:35.634Z,7.60
2022-12-31T07:35:41.052Z,7.60
2022-12-31T07:37:36.253Z,7.70
2022-12-31T07:39:32.204Z,7.70
2022-12-31T07:41:37.939Z,7.80
2022-12-31T07:43:28.233Z,7.80
2022-12-31T07:45:20.625Z,7.80
2022-12-31T07:47:16.224Z,7.80
2022-12-31T07:49:04.005Z,7.80
2022-12-31T07:50:52.489Z,7.90
2022-12-31T07:52:40.135Z,7.90
2022-12-31T07:54:28.669Z,7.90
2022-12-31T07:56:15.883Z,7.90
2022-12-31T07:58:06.065Z,8.00
2022-12-31T08:00:05.908Z,8.00
2022-12-31T08:02:00.230Z,8.00
2022-12-31T08:03:59.045Z,8.00
2022-12-31T08:05:51.840Z,8.10
2022-12-31T08:07:42.131Z,8.10
2022-12-31T08:09:34.865Z,8.20
2022-12-31T08:11:40.847Z,8.20
2022-12-31T08:13:27.973Z,8.20
2022-12-31T08:15:16.273Z,8.20
2022-12-31T08:17:03.859Z,8.20
2022-12-31T08:18:51.597Z,8.20
2022-12-31T08:20:48.533Z,8.30
2022-12-31T08:22:38.925Z,8.30
2022-12-31T08:24:39.718Z,8.30
2022-12-31T08:26:37.986Z,8.40
2022-12-31T08:28:39.643Z,8.40
2022-12-31T08:30:37.014Z,8.40
2022-12-31T08:32:26.595Z,8.50
2022-12-31T08:34:27.760Z,8.50
2022-12-31T08:36:14.751Z,8.60
2022-12-31T08:38:17.139Z,8.70
2022-12-31T08:40:16.823Z,8.70
2022-12-31T08:42:05.063Z,8.80
2022-12-31T08:44:02.446Z,8.90
2022-12-31T08:45:51.131Z,9.00
2022-12-31T08:47:38.687Z,9.00
2022-12-31T08:49:27.361Z,9.10
2022-12-31T08:51:18.273Z,9.10
2022-12-31T08:53:05.540Z,9.20
2022-12-31T08:54:53.082Z,9.30
2022-12-31T08:56:50.468Z,9.30
2022-12-31T08:58:53.291Z,9.40
2022-12-31T09:00:40.835Z,9.50
2022-12-31T09:02:39.349Z,9.60
2022-12-31T09:04:33.042Z,9.60
2022-12-31T09:06:25.710Z,9.60
2022-12-31T09:08:25.248Z,9.60
2022-12-31T09:10:19.744Z,9.60
2022-12-31T09:12:12.723Z,9.60
2022-12-31T09:14:04.803Z,9.70
2022-12-31T09:16:11.144Z,9.70
2022-12-31T09:17:58.745Z,9.80
2022-12-31T09:19:46.442Z,9.80
2022-12-31T09:21:33.614Z,9.90
2022-12-31T09:23:20.765Z,9.90
2022-12-31T09:25:12.604Z,10.00
2022-12-31T09:27:00.455Z,10.00
2022-12-31T09:28:47.685Z,10.00
2022-12-31T09:30:57.183Z,10.00
2022-12-31T09:33:00.763Z,10.00
2022-12-31T09:34:48.822Z,10.00
2022-12-31T09:36:44.945Z,10.00
2022-12-31T09:38:35.115Z,10.00
2022-12-31T09:40:28.452Z,10.00
2022-12-31T09:42:34.500Z,10.10
2022-12-31T09:44:39.977Z,10.20
2022-12-31T09:46:45.939Z,10.30
2022-12-31T09:48:51.040Z,10.30
2022-12-31T09:50:42.746Z,10.40
2022-12-31T09:52:36.722Z,10.40
2022-12-31T09:54:24.068Z,10.50
2022-12-31T09:56:13.851Z,10.50
2022-12-31T09:58:01.125Z,10.50
2022-12-31T09:59:55.886Z,10.60
2022-12-31T10:01:43.801Z,10.60
2022-12-31T10:03:49.798Z,10.60
2022-12-31T10:05:57.078Z,10.60
2022-12-31T10:07:53.557Z,10.60
2022-12-31T10:09:56.018Z,10.60
2022-12-31T10:11:49.441Z,10.60
2022-12-31T10:13:56.931Z,10.70
2022-12-31T10:15:53.083Z,10.70
2022-12-31T10:17:46.695Z,10.70
2022-12-31T10:19:59.741Z,10.70
2022-12-31T10:22:05.754Z,10.70
2022-12-31T10:24:05.295Z,10.60
2022-12-31T10:26:11.048Z,10.60
2022-12-31T10:28:07.098Z,10.60
2022-12-31T10:30:03.796Z,10.60
2022-12-31T10:32:04.954Z,10.60
2022-12-31T10:33:51.972Z,10.50
2022-12-31T10:35:46.318Z,10.50
2022-12-31T10:37:33.405Z,10.40
2022-12-31T10:39:47.619Z,10.30
2022-12-31T10:41:34.992Z,10.30
2022-12-31T10:43:41.043Z,10.10
2022-12-31T10:45:34.446Z,10.00
2022-12-31T10:47:37.090Z,10.00
2022-12-31T10:49:42.842Z,10.00
2022-12-31T10:51:48.751Z,9.90
2022-12-31T10:53:38.350Z,9.90
2022-12-31T10:55:25.513Z,9.90
2022-12-31T10:57:24.747Z,10.00
2022-12-31T10:59:15.013Z,9.90
2022-12-31T11:01:20.789Z,9.90
2022-12-31T11:03:07.981Z,9.80
2022-12-31T11:05:15.624Z,9.80
2022-12-31T11:07:14.807Z,9.80
2022-12-31T11:09:20.648Z,9.80
2022-12-31T11:11:08.030Z,9.80
2022-12-31T11:12:55.184Z,9.80
2022-12-31T11:14:42.134Z,9.80
2022-12-31T11:16:34.390Z,9.80
2022-12-31T11:18:31.152Z,9.80
2022-12-31T11:20:27.407Z,9.90
2022-12-31T11:22:38.963Z,9.90
2022-12-31T11:24:51.367Z,10.00
2022-12-31T11:26:48.670Z,10.00
2022-12-31T11:28:38.740Z,10.00
2022-12-31T11:30:49.015Z,10.10
2022-12-31T11:32:44.684Z,10.10
2022-12-31T11:34:38.085Z,10.20
2022-12-31T11:36:43.782Z,10.20
2022-12-31T11:38:36.219Z,10.30
2022-12-31T11:40:26.812Z,10.30
2022-12-31T11:42:52.292Z,10.40
2022-12-31T11:44:49.859Z,10.50
2022-12-31T11:46:37.512Z,10.50
2022-12-31T11:48:31.734Z,10.60
2022-12-31T11:50:22.605Z,10.60
2022-12-31T11:52:21.332Z,10.60
2022-12-31T11:54:14.896Z,10.70
2022-12-31T11:56:04.834Z,10.70
2022-12-31T11:57:52.477Z,10.70
2022-12-31T11:59:40.870Z,10.80
2022-12-31T12:01:31.992Z,10.80
2022-12-31T12:03:19.783Z,10.80
2022-12-31T12:05:10.926Z,10.90
2022-12-31T12:06:58.897Z,10.90
2022-12-31T12:08:46.804Z,11.00
2022-12-31T12:10:44.210Z,11.00
2022-12-31T12:12:40.984Z,11.00
2022-12-31T12:14:32.913Z,11.20
2022-12-31T12:16:21.402Z,11.30
2022-12-31T12:18:13.187Z,11.30
2022-12-31T12:20:02.158Z,11.30
2022-12-31T12:21:49.350Z,11.20
2022-12-31T12:23:36.998Z,11.20
2022-12-31T12:25:26.493Z,11.20
2022-12-31T12:27:22.439Z,11.20
2022-12-31T12:29:16.578Z,11.20
2022-12-31T12:31:05.546Z,11.20
2022-12-31T12:32:52.793Z,11.20
2022-12-31T12:34:45.935Z,11.30
2022-12-31T12:36:45.876Z,11.30
2022-12-31T12:38:33.788Z,11.30
2022-12-31T12:40:22.246Z,11.40
2022-12-31T12:42:16.235Z,11.40
2022-12-31T12:44:07.362Z,11.40
2022-12-31T12:45:56.388Z,11.40
2022-12-31T12:47:44.957Z,11.60
2022-12-31T12:49:37.448Z,11.80
2022-12-31T12:51:27.607Z,11.80
2022-12-31T12:53:18.741Z,11.70
2022-12-31T12:55:27.668Z,11.80
2022-12-31T12:57:21.151Z,11.80
2022-12-31T12:59:08.578Z,11.80
2022-12-31T13:01:04.084Z,12.00
2022-12-31T13:02:57.341Z,12.30
2022-12-31T13:05:03.088Z,12.40
2022-12-31T13:06:57.719Z,12.50
2022-12-31T13:09:17.158Z,12.50
2022-12-31T13:11:18.519Z,12.50
2022-12-31T13:13:28.454Z,12.50
2022-12-31T13:15:21.765Z,12.50
2022-12-31T13:17:09.116Z,12.40
2022-12-31T13:19:03.390Z,12.40
2022-12-31T13:20:56.631Z,12.40
2022-12-31T13:22:47.529Z,12.40
2022-12-31T13:24:40.477Z,12.40
2022-12-31T13:26:30.195Z,12.40
2022-12-31T13:28:19.197Z,12.40
2022-12-31T13:30:18.314Z,12.40
2022-12-31T13:32:07.762Z,12.50
2022-12-31T13:34:04.260Z,12.50
2022-12-31T13:35:56.382Z,12.50
2022-12-31T13:37:44.372Z,12.50
2022-12-31T13:39:36.530Z,12.50
2022-12-31T13:41:33.142Z,12.50
2022-12-31T13:43:23.017Z,12.50
2022-12-31T13:45:13.723Z,12.60
2022-12-31T13:47:13.123Z,12.50
2022-12-31T13:49:03.105Z,12.60
2022-12-31T13:51:20.190Z,12.50
2022-12-31T13:53:12.389Z,12.50
2022-12-31T13:55:08.147Z,12.60
2022-12-31T13:56:57.359Z,12.60
2022-12-31T13:58:50.262Z,12.60
2022-12-31T14:00:41.220Z,12.60
2022-12-31T14:02:31.766Z,12.60
2022-12-31T14:04:23.805Z,12.60
2022-12-31T14:06:22.691Z,12.60
2022-12-31T14:08:10.879Z,12.60
2022-12-31T14:09:58.332Z,12.60
2022-12-31T14:11:51.732Z,12.70
2022-12-31T14:14:07.905Z,12.60
2022-12-31T14:16:12.257Z,12.60
2022-12-31T14:18:05.624Z,12.60
2022-12-31T14:19:58.917Z,12.60
2022-12-31T14:21:45.876Z,12.70
2022-12-31T14:23:38.874Z,12.60
2022-12-31T14:25:29.213Z,12.70
2022-12-31T14:27:19.751Z,12.70
2022-12-31T14:29:14.841Z,12.70
2022-12-31T14:31:15.012Z,12.70
2022-12-31T14:33:02.107Z,12.70
2022-12-31T14:34:52.528Z,12.70
2022-12-31T14:36:46.531Z,12.70
2022-12-31T14:39:00.063Z,12.70
2022-12-31T14:41:05.963Z,12.60
2022-12-31T14:42:53.363Z,12.60
2022-12-31T14:44:52.663Z,12.60
2022-12-31T14:46:48.748Z,12.60
2022-12-31T14:48:39.068Z,12.60
2022-12-31T14:50:27.729Z,12.60
2022-12-31T14:52:23.002Z,12.50
2022-12-31T14:54:28.736Z,12.50
2022-12-31T14:56:31.733Z,12.40
2022-12-31T14:58:28.131Z,12.40
2022-12-31T15:00:33.242Z,12.40
2022-12-31T15:02:27.703Z,12.40
2022-12-31T15:04:15.441Z,12.40
2022-12-31T15:06:06.098Z,12.40
2022-12-31T15:08:11.760Z,12.40
2022-12-31T15:10:09.803Z,12.40
2022-12-31T15:11:59.948Z,12.30
2022-12-31T15:14:22.632Z,12.30
2022-12-31T15:16:09.568Z,12.30
2022-12-31T15:18:05.315Z,12.30
2022-12-31T15:19:52.453Z,12.30
2022-12-31T15:21:52.880Z,12.30
2022-12-31T15:23:42.430Z,12.30
2022-12-31T15:25:40.360Z,12.30
2022-12-31T15:27:35.576Z,12.30
2022-12-31T15:29:26.131Z,12.30
2022-12-31T15:31:17.821Z,12.30
2022-12-31T15:33:44.545Z,12.20
2022-12-31T15:35:48.721Z,12.20
2022-12-31T15:37:36.719Z,12.20
2022-12-31T15:39:32.877Z,12.20
2022-12-31T15:41:20.303Z,12.20
2022-12-31T15:43:16.583Z,12.20
2022-12-31T15:45:06.182Z,12.20
2022-12-31T15:47:00.796Z,12.20
2022-12-31T15:49:02.046Z,12.20
2022-12-31T15:50:54.560Z,12.20
2022-12-31T15:52:43.695Z,12.20
2022-12-31T15:54:30.818Z,12.20
2022-12-31T15:56:20.775Z,12.20
2022-12-31T15:58:16.847Z,12.20
2022-12-31T16:00:09.269Z,12.30
2022-12-31T16:01:56.824Z,12.30
2022-12-31T16:03:46.552Z,12.20
2022-12-31T16:05:34.148Z,12.20
2022-12-31T16:07:21.639Z,12.20
2022-12-31T16:09:16.324Z,12.30
2022-12-31T16:11:05.055Z,12.20
2022-12-31T16:12:52.987Z,12.20
2022-12-31T16:14:44.934Z,12.20
2022-12-31T16:16:32.464Z,12.20
2022-12-31T16:18:23.195Z,12.20
2022-12-31T16:20:22.342Z,12.20
2022-12-31T16:22:24.375Z,12.20
2022-12-31T16:24:28.896Z,12.30
2022-12-31T16:26:16.258Z,12.30
2022-12-31T16:28:03.669Z,12.30
2022-12-31T16:29:56.515Z,12.30
2022-12-31T16:31:44.709Z,12.30
2022-12-31T16:33:32.345Z,12.30
2022-12-31T16:35:23.614Z,12.40
2022-12-31T16:37:16.028Z,12.40
2022-12-31T16:39:29.498Z,12.40
2022-12-31T16:41:16.893Z,12.40
2022-12-31T16:43:04.718Z,12.40
2022-12-31T16:44:52.703Z,12.40
2022-12-31T16:46:40.826Z,12.50
2022-12-31T16:48:28.869Z,12.50
2022-12-31T16:50:17.840Z,12.50
2022-12-31T16:52:07.786Z,12.50
2022-12-31T16:53:55.351Z,12.60
2022-12-31T16:55:42.603Z,12.60
2022-12-31T16:57:30.840Z,12.60
2022-12-31T16:59:24.091Z,12.60
2022-12-31T17:01:16.627Z,12.60
2022-12-31T17:03:08.932Z,12.60
2022-12-31T17:04:56.775Z,12.70
2022-12-31T17:06:44.349Z,12.60
2022-12-31T17:10:12.986Z,12.60
2022-12-31T17:12:29.206Z,12.70
2022-12-31T17:14:47.500Z,12.70
2022-12-31T17:16:36.136Z,12.70
2022-12-31T17:18:24.835Z,12.70
2022-12-31T17:20:19.526Z,12.70
2022-12-31T17:22:15.896Z,12.70
2022-12-31T17:24:06.586Z,12.70
2022-12-31T17:26:19.876Z,12.70
2022-12-31T17:28:18.746Z,12.70
2022-12-31T17:30:23.490Z,12.70
2022-12-31T17:32:23.049Z,12.70
2022-12-31T17:34:13.255Z,12.70
2022-12-31T17:36:23.124Z,12.80
2022-12-31T17:38:23.308Z,12.80
2022-12-31T17:42:38.756Z,12.80
2022-12-31T17:44:28.117Z,12.80
2022-12-31T17:46:16.497Z,12.80
2022-12-31T17:48:04.177Z,12.70
2022-12-31T17:49:53.388Z,12.70
2022-12-31T17:51:47.192Z,12.70
2022-12-31T17:54:34.320Z,12.70
2022-12-31T17:56:22.108Z,12.60
2022-12-31T17:58:15.463Z,12.60
2022-12-31T18:00:06.164Z,12.50
2022-12-31T18:02:01.246Z,12.50
2022-12-31T18:03:48.871Z,12.50
2022-12-31T18:05:36.610Z,12.40
2022-12-31T18:07:24.267Z,12.40
2022-12-31T18:09:12.343Z,12.40
2022-12-31T18:10:59.884Z,12.30
2022-12-31T18:12:48.257Z,12.30
2022-12-31T18:14:35.678Z,12.40
2022-12-31T18:16:23.014Z,12.40
2022-12-31T18:18:31.084Z,12.40
2022-12-31T18:20:18.795Z,12.40
2022-12-31T18:22:06.388Z,12.40
2022-12-31T18:27:26.377Z,12.40
2022-12-31T18:29:15.132Z,12.40
2022-12-31T18:31:03.159Z,12.40
2022-12-31T18:32:50.515Z,12.40
2022-12-31T18:34:39.037Z,12.40
2022-12-31T18:36:27.938Z,12.40
2022-12-31T18:38:16.249Z,12.40
2022-12-31T18:40:03.946Z,12.40
2022-12-31T18:41:52.268Z,12.40
2022-12-31T18:43:39.583Z,12.40
2022-12-31T18:45:27.224Z,12.40
2022-12-31T18:47:16.073Z,12.40
2022-12-31T18:49:03.448Z,12.40
2022-12-31T18:50:51.020Z,12.40
2022-12-31T18:52:38.712Z,12.40
2022-12-31T18:54:25.913Z,12.40
2022-12-31T18:56:14.629Z,12.40
2022-12-31T18:58:01.845Z,12.40
2022-12-31T18:59:48.854Z,12.40
2022-12-31T19:01:40.460Z,12.40
2022-12-31T19:03:28.398Z,12.40
2022-12-31T19:05:26.554Z,12.50
2022-12-31T19:07:13.924Z,12.50
2022-12-31T19:09:01.332Z,12.40
2022-12-31T19:10:49.358Z,12.40
2022-12-31T19:12:36.692Z,12.40
2022-12-31T19:14:25.073Z,12.40
2022-12-31T19:16:14.044Z,12.40
2022-12-31T19:18:02.586Z,12.50
2022-12-31T19:19:49.751Z,12.50
2022-12-31T19:21:36.720Z,12.60
2022-12-31T19:23:24.091Z,12.60
2022-12-31T19:25:16.470Z,12.60
2022-12-31T19:27:03.607Z,12.60
2022-12-31T19:28:51.250Z,12.60
2022-12-31T19:30:38.982Z,12.60
2022-12-31T19:32:26.016Z,12.60
2022-12-31T19:34:13.408Z,12.60
2022-12-31T19:36:00.529Z,12.60
2022-12-31T19:37:48.367Z,12.60
2022-12-31T19:39:35.557Z,12.60
2022-12-31T19:41:22.674Z,12.60
2022-12-31T19:43:12.498Z,12.60
2022-12-31T19:44:59.856Z,12.60
2022-12-31T19:46:47.409Z,12.60
2022-12-31T19:48:34.563Z,12.60
2022-12-31T19:50:26.103Z,12.60
2022-12-31T19:52:13.224Z,12.50
2022-12-31T19:54:00.284Z,12.60
2022-12-31T19:55:48.340Z,12.70
2022-12-31T19:57:35.388Z,12.70
2022-12-31T19:59:22.462Z,12.70
2022-12-31T20:01:17.559Z,12.70
2022-12-31T20:03:04.903Z,12.60
2022-12-31T20:04:52.738Z,12.60
2022-12-31T20:06:40.173Z,12.60
2022-12-31T20:08:27.315Z,12.60
2022-12-31T20:10:14.672Z,12.60
2022-12-31T20:12:01.989Z,12.60
2022-12-31T20:13:50.114Z,12.60
2022-12-31T20:15:47.609Z,12.60
2022-12-31T20:17:35.155Z,12.60
2022-12-31T20:19:22.278Z,12.60
2022-12-31T20:21:13.472Z,12.60
2022-12-31T20:23:01.108Z,12.60
2022-12-31T20:24:48.556Z,12.60
2022-12-31T20:26:35.545Z,12.60
2022-12-31T20:28:22.951Z,12.60
2022-12-31T20:30:10.358Z,12.60
2022-12-31T20:31:57.420Z,12.60
2022-12-31T20:33:44.875Z,12.60
2022-12-31T20:35:32.663Z,12.60
2022-12-31T20:37:19.895Z,12.60
2022-12-31T20:39:07.304Z,12.50
2022-12-31T20:40:54.293Z,12.50
2022-12-31T20:42:41.480Z,12.50
2022-12-31T20:44:28.717Z,12.50
2022-12-31T20:46:19.041Z,12.40
2022-12-31T20:48:06.125Z,12.40
2022-12-31T20:50:11.194Z,12.40
2022-12-31T20:51:59.157Z,12.40
2022-12-31T20:53:50.645Z,12.40
2022-12-31T20:55:38.007Z,12.40
2022-12-31T20:57:28.825Z,12.40
2022-12-31T20:59:20.273Z,12.40
2022-12-31T21:01:08.707Z,12.40
2022-12-31T21:03:06.432Z,12.30
2022-12-31T21:04:57.865Z,12.20
2022-12-31T21:06:45.230Z,12.20
2022-12-31T21:08:35.012Z,12.20
2022-12-31T21:10:22.377Z,12.20
2022-12-31T21:12:30.244Z,12.30
2022-12-31T21:14:17.362Z,12.30
2022-12-31T21:16:04.568Z,12.30
2022-12-31T21:17:51.925Z,12.30
2022-12-31T21:19:39.678Z,12.20
2022-12-31T21:21:26.862Z,12.20
2022-12-31T21:23:14.399Z,12.30
2022-12-31T21:25:02.237Z,12.30
2022-12-31T21:26:49.281Z,12.30
2022-12-31T21:28:36.593Z,12.30
2022-12-31T21:30:23.910Z,12.30
2022-12-31T21:32:11.034Z,12.30
2022-12-31T21:33:58.345Z,12.30
2022-12-31T21:35:53.587Z,12.30
2022-12-31T21:37:58.746Z,12.40
2022-12-31T21:39:48.770Z,12.40
2022-12-31T21:41:51.058Z,12.50
2022-12-31T21:43:38.649Z,12.60
2022-12-31T21:45:26.351Z,12.70
2022-12-31T21:47:39.533Z,12.70
2022-12-31T21:49:29.857Z,12.70
2022-12-31T21:51:18.124Z,12.80
2022-12-31T21:53:05.353Z,12.80
2022-12-31T21:55:11.185Z,12.80
2022-12-31T21:56:58.570Z,12.90
2022-12-31T21:58:47.237Z,12.90
2022-12-31T22:00:53.622Z,13.00
2022-12-31T22:03:00.144Z,13.10
2022-12-31T22:05:05.678Z,13.10
2022-12-31T22:06:55.192Z,13.10
2022-12-31T22:08:45.399Z,13.10
2022-12-31T22:10:37.128Z,13.10
2022-12-31T22:12:24.548Z,13.10
2022-12-31T22:14:12.073Z,13.10
2022-12-31T22:16:04.835Z,13.10
2022-12-31T22:17:52.598Z,13.20
2022-12-31T22:20:01.036Z,13.20
2022-12-31T22:21:47.464Z,13.30
2022-12-31T22:23:35.210Z,13.30
2022-12-31T22:25:23.098Z,13.40
2022-12-31T22:27:28.413Z,13.40
2022-12-31T22:29:17.211Z,13.40
2022-12-31T22:31:04.651Z,13.40
2022-12-31T22:32:51.733Z,13.40
2022-12-31T22:34:38.930Z,13.40
2022-12-31T22:37:56.755Z,13.40
2022-12-31T22:39:46.425Z,13.40
2022-12-31T22:41:34.177Z,13.40
2022-12-31T22:43:21.617Z,13.40
2022-12-31T22:45:09.694Z,13.40
2022-12-31T22:46:56.938Z,13.40
2022-12-31T22:48:44.135Z,13.40
2022-12-31T22:50:31.480Z,13.40
2022-12-31T22:52:18.615Z,13.40
2022-12-31T22:54:05.783Z,13.40
2022-12-31T22:55:54.375Z,13.40
2022-12-31T22:57:41.393Z,13.40
2022-12-31T22:59:28.405Z,13.40
2022-12-31T23:01:15.846Z,13.40
2022-12-31T23:03:02.991Z,13.40
2022-12-31T23:04:50.079Z,13.40
2022-12-31T23:06:43.670Z,13.40
2022-12-31T23:08:30.846Z,13.40
2022-12-31T23:10:36.412Z,13.40
2022-12-31T23:12:24.407Z,13.40
2022-12-31T23:14:34.062Z,13.40
2022-12-31T23:16:40.191Z,13.40
2022-12-31T23:18:46.570Z,13.40
2022-12-31T23:20:52.812Z,13.30
2022-12-31T23:22:58.440Z,13.30
2022-12-31T23:24:46.566Z,13.30
2022-12-31T23:26:33.611Z,13.20
2022-12-31T23:28:24.628Z,13.20
2022-12-31T23:30:12.325Z,13.20
2022-12-31T23:31:59.907Z,13.10
2022-12-31T23:33:47.104Z,13.10
2022-12-31T23:35:34.674Z,13.10
2022-12-31T23:37:21.805Z,13.00
2022-12-31T23:39:09.202Z,13.00
2022-12-31T23:40:56.628Z,13.00
2022-12-31T23:42:43.734Z,12.90
2022-12-31T23:44:30.791Z,12.90
2022-12-31T23:46:18.349Z,12.80
2022-12-31T23:48:05.687Z,12.80
2022-12-31T23:49:53.060Z,12.80
2022-12-31T23:51:40.707Z,12.80
2022-12-31T23:53:28.165Z,12.80
2022-12-31T23:55:15.427Z,12.70
2022-12-31T23:57:03.183Z,12.70
2022-12-31T23:58:53.802Z,12.60
